createdAt,value
2022-08-19T00:02:13.405Z,64.55
2022-08-19T00:04:41.206Z,64.65
2022-08-19T00:07:08.751Z,64.85
2022-08-19T00:09:36.564Z,64.82
2022-08-19T00:12:04.327Z,64.84
2022-08-19T00:14:32.504Z,64.91
2022-08-19T00:17:00.437Z,65.46
2022-08-19T00:19:27.497Z,65.27
2022-08-19T00:21:55.418Z,65.53
2022-08-19T00:24:22.966Z,65.44
2022-08-19T00:26:51.403Z,65.75
2022-08-19T00:29:21.805Z,65.70
2022-08-19T00:31:50.776Z,65.40
2022-08-19T00:34:18.160Z,66.29
2022-08-19T00:36:46.024Z,65.45
2022-08-19T00:39:16.400Z,65.65
2022-08-19T00:41:47.890Z,66.43
2022-08-19T00:44:27.194Z,66.53
2022-08-19T00:46:58.476Z,67.15
2022-08-19T00:49:38.729Z,68.29
2022-08-19T00:52:17.546Z,68.60
2022-08-19T00:54:52.392Z,68.83
2022-08-19T00:57:31.010Z,69.53
2022-08-19T01:00:02.300Z,70.38
2022-08-19T01:02:33.291Z,70.41
2022-08-19T01:05:05.817Z,70.99
2022-08-19T01:07:37.647Z,73.15
2022-08-19T01:10:09.952Z,72.00
2022-08-19T01:12:38.037Z,73.82
2022-08-19T01:15:10.777Z,73.49
2022-08-19T01:17:41.084Z,72.93
2022-08-19T01:20:17.437Z,73.64
2022-08-19T01:22:52.205Z,74.07
2022-08-19T01:25:25.078Z,74.61
2022-08-19T01:27:53.851Z,75.46
2022-08-19T01:30:29.608Z,75.50
2022-08-19T01:32:57.463Z,75.17
2022-08-19T01:35:27.749Z,74.76
2022-08-19T01:37:59.959Z,75.31
2022-08-19T01:40:32.524Z,76.08
2022-08-19T01:43:00.645Z,75.76
2022-08-19T01:45:31.197Z,75.32
2022-08-19T01:48:02.344Z,75.45
2022-08-19T01:50:32.663Z,75.24
2022-08-19T01:53:02.466Z,74.71
2022-08-19T01:55:33.830Z,75.39
2022-08-19T01:58:06.364Z,76.06
2022-08-19T02:00:35.956Z,76.90
2022-08-19T02:03:03.092Z,76.97
2022-08-19T02:05:30.241Z,76.80
2022-08-19T02:07:57.897Z,77.58
2022-08-19T02:10:25.051Z,78.58
2022-08-19T02:12:52.546Z,78.71
2022-08-19T02:15:20.991Z,79.16
2022-08-19T02:17:48.900Z,80.71
2022-08-19T02:20:16.739Z,79.74
2022-08-19T02:22:44.578Z,80.20
2022-08-19T02:25:14.091Z,80.31
2022-08-19T02:27:42.167Z,79.51
2022-08-19T02:30:14.600Z,79.88
2022-08-19T02:32:44.407Z,79.79
2022-08-19T02:35:14.201Z,80.46
2022-08-19T02:38:02.073Z,80.60
2022-08-19T02:40:33.057Z,81.74
2022-08-19T02:42:59.982Z,82.04
2022-08-19T02:45:26.980Z,82.68
2022-08-19T02:47:54.107Z,81.84
2022-08-19T02:50:21.079Z,82.45
2022-08-19T02:52:48.077Z,81.91
2022-08-19T02:55:15.067Z,82.35
2022-08-19T02:57:42.957Z,82.67
2022-08-19T03:00:13.734Z,82.06
2022-08-19T03:02:41.483Z,83.07
2022-08-19T03:05:10.646Z,82.91
2022-08-19T03:07:38.373Z,84.16
2022-08-19T03:10:06.817Z,84.08
2022-08-19T03:12:38.704Z,84.45
2022-08-19T03:15:09.835Z,84.11
2022-08-19T03:17:37.077Z,83.35
2022-08-19T03:20:05.819Z,83.24
2022-08-19T03:22:32.756Z,84.00
2022-08-19T03:25:00.483Z,83.38
2022-08-19T03:27:32.533Z,84.09
2022-08-19T03:30:02.163Z,84.13
2022-08-19T03:32:32.562Z,83.88
2022-08-19T03:35:00.981Z,83.54
2022-08-19T03:37:27.940Z,83.45
2022-08-19T03:39:54.932Z,82.86
2022-08-19T03:42:38.143Z,82.60
2022-08-19T03:45:09.576Z,82.66
2022-08-19T03:47:36.514Z,82.17
2022-08-19T03:50:04.432Z,83.34
2022-08-19T03:52:31.696Z,82.69
2022-08-19T03:54:58.677Z,81.95
2022-08-19T03:57:32.013Z,80.85
2022-08-19T04:00:12.886Z,79.93
2022-08-19T04:02:40.774Z,75.17
2022-08-19T04:05:09.240Z,72.29
2022-08-19T04:07:36.611Z,68.92
2022-08-19T04:10:05.672Z,65.86
2022-08-19T04:12:33.233Z,63.30
2022-08-19T04:15:00.291Z,64.98
2022-08-19T04:17:27.261Z,67.67
2022-08-19T04:19:54.234Z,66.50
2022-08-19T04:22:21.248Z,64.82
2022-08-19T04:24:48.227Z,60.85
2022-08-19T04:27:16.026Z,57.52
2022-08-19T04:29:42.951Z,55.49
2022-08-19T04:32:11.882Z,53.76
2022-08-19T04:35:01.455Z,52.98
2022-08-19T04:37:35.149Z,52.84
2022-08-19T04:40:22.736Z,50.90
2022-08-19T04:42:49.829Z,48.98
2022-08-19T04:45:17.567Z,47.13
2022-08-19T04:47:49.186Z,46.65
2022-08-19T04:50:27.491Z,44.40
2022-08-19T04:52:56.404Z,43.38
2022-08-19T04:55:26.394Z,41.55
2022-08-19T04:57:54.009Z,41.08
2022-08-19T05:00:21.008Z,39.84
2022-08-19T05:02:48.004Z,40.89
2022-08-19T05:05:15.116Z,43.30
2022-08-19T05:07:42.092Z,46.23
2022-08-19T05:10:09.504Z,48.63
2022-08-19T05:12:36.590Z,44.75
2022-08-19T05:15:06.698Z,44.88
2022-08-19T05:17:38.377Z,47.15
2022-08-19T05:20:26.622Z,47.85
2022-08-19T05:22:53.870Z,49.45
2022-08-19T05:25:22.619Z,51.98
2022-08-19T05:27:49.779Z,50.36
2022-08-19T05:30:17.921Z,45.19
2022-08-19T05:32:45.515Z,38.57
2022-08-19T05:35:13.079Z,36.35
2022-08-19T05:37:41.554Z,33.98
2022-08-19T05:40:10.761Z,32.05
2022-08-19T05:42:38.546Z,31.16
2022-08-19T05:45:06.469Z,30.13
2022-08-19T05:47:33.531Z,30.30
2022-08-19T05:50:02.767Z,29.60
2022-08-19T05:52:32.470Z,29.13
2022-08-19T05:55:00.585Z,29.42
2022-08-19T05:57:29.821Z,27.79
2022-08-19T05:59:59.082Z,27.28
2022-08-19T06:02:28.458Z,26.39
2022-08-19T06:04:55.439Z,26.31
2022-08-19T06:07:22.723Z,25.15
2022-08-19T06:09:59.327Z,23.96
2022-08-19T06:12:33.787Z,23.60
2022-08-19T06:15:02.860Z,23.52
2022-08-19T06:17:31.713Z,25.73
2022-08-19T06:20:00.145Z,24.70
2022-08-19T06:22:28.243Z,23.20
2022-08-19T06:24:57.056Z,22.25
2022-08-19T06:27:24.532Z,22.06
2022-08-19T06:29:51.574Z,22.49
2022-08-19T06:32:20.079Z,22.78
2022-08-19T06:34:48.000Z,22.97
2022-08-19T06:37:15.603Z,23.52
2022-08-19T06:39:45.254Z,23.13
2022-08-19T06:42:17.618Z,27.01
2022-08-19T06:44:49.281Z,24.46
2022-08-19T06:47:23.428Z,24.07
2022-08-19T06:50:01.180Z,22.22
2022-08-19T06:52:28.710Z,22.69
2022-08-19T06:54:57.170Z,22.63
2022-08-19T06:57:27.827Z,20.74
2022-08-19T06:59:56.972Z,22.53
2022-08-19T07:02:27.340Z,22.57
2022-08-19T07:04:54.874Z,22.83
2022-08-19T07:07:23.272Z,20.53
2022-08-19T07:09:59.974Z,24.67
2022-08-19T07:12:33.945Z,29.51
2022-08-19T07:15:05.289Z,31.36
2022-08-19T07:17:34.690Z,33.08
2022-08-19T07:20:06.968Z,31.75
2022-08-19T07:22:36.921Z,28.05
2022-08-19T07:25:06.476Z,26.38
2022-08-19T07:27:34.922Z,27.58
2022-08-19T07:30:02.212Z,28.18
2022-08-19T07:32:29.333Z,28.15
2022-08-19T07:34:57.142Z,29.02
2022-08-19T07:37:32.473Z,28.99
2022-08-19T07:40:01.234Z,29.60
2022-08-19T07:42:30.798Z,29.34
2022-08-19T07:44:59.470Z,30.21
2022-08-19T07:47:50.189Z,30.55
2022-08-19T07:50:14.313Z,30.98
2022-08-19T07:52:41.782Z,31.34
2022-08-19T07:55:13.596Z,31.51
2022-08-19T07:57:58.411Z,34.03
2022-08-19T08:00:25.663Z,34.34
2022-08-19T08:02:55.225Z,33.73
2022-08-19T08:05:44.210Z,34.72
2022-08-19T08:08:31.428Z,35.11
2022-08-19T08:11:00.251Z,34.94
2022-08-19T08:13:28.116Z,35.05
2022-08-19T08:15:56.743Z,36.80
2022-08-19T08:18:27.520Z,36.28
2022-08-19T08:20:56.951Z,34.57
2022-08-19T08:23:26.877Z,34.85
2022-08-19T08:25:59.161Z,35.02
2022-08-19T08:28:29.679Z,33.61
2022-08-19T08:30:59.017Z,33.68
2022-08-19T08:33:34.044Z,34.56
2022-08-19T08:36:14.249Z,34.91
2022-08-19T08:38:44.846Z,34.26
2022-08-19T08:41:35.927Z,33.02
2022-08-19T08:44:05.755Z,33.41
2022-08-19T08:46:43.377Z,35.05
2022-08-19T08:49:44.827Z,33.85
2022-08-19T08:52:32.083Z,36.67
2022-08-19T08:55:10.118Z,37.18
2022-08-19T08:57:49.815Z,36.69
2022-08-19T09:00:23.415Z,35.02
2022-08-19T09:02:51.665Z,35.12
2022-08-19T09:05:22.702Z,35.94
2022-08-19T09:08:06.239Z,37.33
2022-08-19T09:10:47.368Z,37.72
2022-08-19T09:14:40.666Z,38.29
2022-08-19T09:17:09.055Z,37.78
2022-08-19T09:19:53.558Z,37.78
2022-08-19T09:22:25.804Z,36.86
2022-08-19T09:24:55.958Z,36.09
2022-08-19T09:27:42.245Z,36.27
2022-08-19T09:30:17.105Z,36.29
2022-08-19T09:32:46.374Z,36.55
2022-08-19T09:35:16.017Z,36.38
2022-08-19T09:37:44.516Z,36.27
2022-08-19T09:40:13.656Z,37.46
2022-08-19T09:42:50.379Z,37.53
2022-08-19T09:45:22.645Z,35.25
2022-08-19T09:47:54.110Z,34.54
2022-08-19T09:50:23.072Z,34.31
2022-08-19T09:52:54.193Z,34.88
2022-08-19T09:55:31.949Z,34.21
2022-08-19T09:58:03.095Z,34.20
2022-08-19T10:00:32.019Z,34.31
2022-08-19T10:02:59.370Z,34.57
2022-08-19T10:05:45.077Z,35.14
2022-08-19T10:08:23.921Z,35.04
2022-08-19T10:10:55.904Z,36.16
2022-08-19T10:13:29.432Z,35.66
2022-08-19T10:16:03.990Z,35.52
2022-08-19T10:18:31.224Z,35.99
2022-08-19T10:21:11.800Z,35.60
2022-08-19T10:23:44.833Z,35.90
2022-08-19T10:26:15.571Z,36.04
2022-08-19T10:28:43.214Z,36.90
2022-08-19T10:32:00.011Z,36.14
2022-08-19T10:34:17.551Z,36.19
2022-08-19T10:36:56.716Z,35.18
2022-08-19T10:39:31.152Z,35.53
2022-08-19T10:41:58.940Z,35.05
2022-08-19T10:44:31.963Z,34.75
2022-08-19T10:47:00.324Z,35.14
2022-08-19T10:49:28.016Z,34.94
2022-08-19T10:52:18.548Z,35.25
2022-08-19T10:55:08.675Z,35.54
2022-08-19T10:57:59.367Z,35.29
2022-08-19T11:00:25.069Z,34.77
2022-08-19T11:02:52.704Z,34.97
2022-08-19T11:05:20.462Z,35.33
2022-08-19T11:07:52.603Z,35.06
2022-08-19T11:10:21.851Z,34.08
2022-08-19T11:12:49.471Z,34.46
2022-08-19T11:15:17.157Z,34.71
2022-08-19T11:17:44.727Z,34.96
2022-08-19T11:20:15.486Z,35.09
2022-08-19T11:22:43.263Z,34.96
2022-08-19T11:25:12.335Z,35.49
2022-08-19T11:27:45.603Z,36.74
2022-08-19T11:30:14.507Z,35.57
2022-08-19T11:32:48.577Z,35.25
2022-08-19T11:35:17.271Z,35.58
2022-08-19T11:37:44.291Z,35.44
2022-08-19T11:40:12.391Z,35.30
2022-08-19T11:42:57.858Z,35.14
2022-08-19T11:45:27.365Z,35.26
2022-08-19T11:47:55.140Z,35.42
2022-08-19T11:50:24.344Z,35.59
2022-08-19T11:52:55.418Z,35.59
2022-08-19T11:55:22.454Z,35.65
2022-08-19T11:57:49.534Z,36.25
2022-08-19T12:00:16.830Z,36.68
2022-08-19T12:02:43.903Z,36.69
2022-08-19T12:05:12.938Z,36.85
2022-08-19T12:07:43.445Z,37.05
2022-08-19T12:10:11.658Z,36.96
2022-08-19T12:12:43.510Z,36.79
2022-08-19T12:15:11.952Z,36.56
2022-08-19T12:17:39.400Z,36.71
2022-08-19T12:20:08.006Z,36.58
2022-08-19T12:22:35.979Z,36.94
2022-08-19T12:25:03.712Z,36.59
2022-08-19T12:27:35.731Z,36.61
2022-08-19T12:30:11.917Z,36.81
2022-08-19T12:32:39.292Z,36.33
2022-08-19T12:35:09.170Z,36.56
2022-08-19T12:37:36.303Z,36.62
2022-08-19T12:40:04.529Z,36.97
2022-08-19T12:42:31.565Z,37.74
2022-08-19T12:44:58.580Z,37.76
2022-08-19T12:47:27.458Z,36.60
2022-08-19T12:49:56.016Z,35.61
2022-08-19T12:52:28.173Z,36.25
2022-08-19T12:54:57.438Z,35.67
2022-08-19T12:57:32.838Z,35.91
2022-08-19T13:00:01.959Z,35.65
2022-08-19T13:02:33.159Z,35.62
2022-08-19T13:05:09.389Z,35.66
2022-08-19T13:07:39.437Z,35.60
2022-08-19T13:10:10.012Z,35.86
2022-08-19T13:12:37.038Z,36.33
2022-08-19T13:15:10.847Z,36.11
2022-08-19T13:17:39.938Z,36.19
2022-08-19T13:20:12.203Z,35.70
2022-08-19T13:22:39.740Z,35.34
2022-08-19T13:25:09.069Z,35.41
2022-08-19T13:27:37.299Z,35.36
2022-08-19T13:30:26.551Z,35.52
2022-08-19T13:33:12.324Z,36.18
2022-08-19T13:35:50.650Z,35.78
2022-08-19T13:38:22.191Z,36.23
2022-08-19T13:40:52.475Z,35.72
2022-08-19T13:43:23.832Z,36.19
2022-08-19T13:45:57.104Z,36.04
2022-08-19T13:48:27.571Z,36.67
2022-08-19T13:50:55.216Z,36.85
2022-08-19T13:53:22.516Z,36.82
2022-08-19T13:55:51.402Z,36.64
2022-08-19T13:58:18.493Z,37.12
2022-08-19T14:00:47.799Z,36.82
2022-08-19T14:03:14.999Z,36.40
2022-08-19T14:05:42.072Z,37.10
2022-08-19T14:08:10.330Z,36.88
2022-08-19T14:10:37.374Z,37.06
2022-08-19T14:13:05.618Z,36.33
2022-08-19T14:15:33.233Z,36.81
2022-08-19T14:18:00.567Z,38.29
2022-08-19T14:20:28.240Z,37.44
2022-08-19T14:22:55.799Z,36.82
2022-08-19T14:25:27.760Z,37.08
2022-08-19T14:27:55.318Z,37.32
2022-08-19T14:30:35.518Z,36.56
2022-08-19T14:33:03.702Z,36.70
2022-08-19T14:35:35.674Z,37.04
2022-08-19T14:38:07.317Z,37.69
2022-08-19T14:40:35.685Z,37.15
2022-08-19T14:43:06.083Z,36.88
2022-08-19T14:45:38.011Z,36.92
2022-08-19T14:48:12.517Z,37.65
2022-08-19T14:50:46.559Z,37.41
2022-08-19T14:53:13.590Z,37.26
2022-08-19T14:55:47.617Z,37.38
2022-08-19T14:58:29.247Z,37.42
2022-08-19T15:01:01.165Z,36.95
2022-08-19T15:03:29.462Z,36.85
2022-08-19T15:05:58.755Z,37.72
2022-08-19T15:08:27.045Z,37.54
2022-08-19T15:10:54.222Z,38.12
2022-08-19T15:13:22.260Z,36.61
2022-08-19T15:15:49.814Z,36.89
2022-08-19T15:18:16.838Z,36.61
2022-08-19T15:20:46.748Z,36.19
2022-08-19T15:23:17.802Z,36.56
2022-08-19T15:25:45.044Z,36.32
2022-08-19T15:28:12.575Z,36.10
2022-08-19T15:30:41.214Z,36.40
2022-08-19T15:33:08.390Z,36.16
2022-08-19T15:35:35.389Z,36.02
2022-08-19T15:38:02.414Z,36.50
2022-08-19T15:40:29.496Z,35.94
2022-08-19T15:42:58.810Z,35.70
2022-08-19T15:45:32.570Z,36.45
2022-08-19T15:48:02.253Z,36.39
2022-08-19T15:50:32.089Z,36.37
2022-08-19T15:53:03.509Z,36.98
2022-08-19T15:55:35.595Z,36.72
2022-08-19T15:58:28.500Z,36.48
2022-08-19T16:01:21.607Z,36.94
2022-08-19T16:04:14.903Z,37.36
2022-08-19T16:06:51.315Z,37.63
2022-08-19T16:09:26.466Z,37.65
2022-08-19T16:12:02.735Z,37.54
2022-08-19T16:14:33.297Z,38.00
2022-08-19T16:17:00.301Z,38.56
2022-08-19T16:19:27.605Z,38.61
2022-08-19T16:21:56.930Z,38.34
2022-08-19T16:24:26.908Z,38.76
2022-08-19T16:26:54.727Z,39.20
2022-08-19T16:29:34.549Z,39.29
2022-08-19T16:32:10.712Z,39.28
2022-08-19T16:34:40.138Z,38.93
2022-08-19T16:37:07.274Z,39.46
2022-08-19T16:39:34.267Z,39.24
2022-08-19T16:42:01.436Z,40.08
2022-08-19T16:44:29.917Z,40.30
2022-08-19T16:46:59.825Z,40.11
2022-08-19T16:49:53.657Z,39.93
2022-08-19T16:52:16.788Z,39.97
2022-08-19T16:54:44.691Z,40.50
2022-08-19T16:57:13.065Z,39.91
2022-08-19T16:59:44.177Z,40.44
2022-08-19T17:02:23.296Z,39.96
2022-08-19T17:04:58.487Z,40.32
2022-08-19T17:07:28.385Z,40.70
2022-08-19T17:09:56.166Z,40.92
2022-08-19T17:12:31.559Z,40.76
2022-08-19T17:15:05.291Z,40.91
2022-08-19T17:17:33.000Z,40.92
2022-08-19T17:20:01.420Z,40.90
2022-08-19T17:22:28.838Z,40.63
2022-08-19T17:24:58.055Z,40.70
2022-08-19T17:27:31.390Z,40.68
2022-08-19T17:30:02.520Z,41.26
2022-08-19T17:32:33.231Z,41.88
2022-08-19T17:35:00.256Z,42.09
2022-08-19T17:37:28.204Z,42.00
2022-08-19T17:39:55.632Z,42.40
2022-08-19T17:42:22.668Z,42.59
2022-08-19T17:44:50.757Z,42.91
2022-08-19T17:47:19.390Z,43.12
2022-08-19T17:49:46.627Z,44.03
2022-08-19T17:52:13.639Z,43.83
2022-08-19T17:54:40.633Z,44.08
2022-08-19T17:57:08.510Z,44.57
2022-08-19T17:59:37.377Z,44.39
2022-08-19T18:02:07.564Z,45.29
2022-08-19T18:04:38.468Z,45.03
2022-08-19T18:07:06.298Z,45.59
2022-08-19T18:09:41.313Z,45.69
2022-08-19T18:12:11.723Z,46.08
2022-08-19T18:14:40.555Z,45.83
2022-08-19T18:17:13.622Z,46.12
2022-08-19T18:19:43.576Z,46.62
2022-08-19T18:22:25.248Z,46.99
2022-08-19T18:24:52.537Z,46.92
2022-08-19T18:27:19.889Z,46.76
2022-08-19T18:29:46.874Z,46.83
2022-08-19T18:32:18.168Z,47.35
2022-08-19T18:34:51.408Z,47.16
2022-08-19T18:37:18.996Z,47.60
2022-08-19T18:40:18.673Z,47.77
2022-08-19T18:43:05.394Z,47.54
2022-08-19T18:45:51.191Z,47.95
2022-08-19T18:48:36.931Z,48.32
2022-08-19T18:51:04.319Z,49.13
2022-08-19T18:53:34.981Z,49.03
2022-08-19T18:56:02.265Z,49.33
2022-08-19T18:58:35.008Z,49.14
2022-08-19T19:01:21.887Z,49.36
2022-08-19T19:03:53.439Z,48.92
2022-08-19T19:06:29.867Z,49.80
2022-08-19T19:08:57.710Z,49.81
2022-08-19T19:11:30.730Z,50.07
2022-08-19T19:13:59.590Z,50.03
2022-08-19T19:16:26.889Z,50.29
2022-08-19T19:18:53.827Z,50.46
2022-08-19T19:21:23.166Z,50.22
2022-08-19T19:23:54.811Z,50.39
2022-08-19T19:26:22.816Z,49.52
2022-08-19T19:28:51.392Z,49.57
2022-08-19T19:31:26.715Z,50.36
2022-08-19T19:33:55.785Z,50.23
2022-08-19T19:36:24.082Z,50.29
2022-08-19T19:38:51.180Z,49.61
2022-08-19T19:41:25.069Z,50.36
2022-08-19T19:44:23.229Z,50.87
2022-08-19T19:46:45.321Z,50.64
2022-08-19T19:49:13.196Z,50.20
2022-08-19T19:51:42.198Z,49.92
2022-08-19T19:54:21.739Z,50.05
2022-08-19T19:56:50.561Z,50.35
2022-08-19T19:59:18.636Z,50.49
2022-08-19T20:01:48.656Z,50.22
2022-08-19T20:04:17.382Z,50.27
2022-08-19T20:06:46.327Z,50.14
2022-08-19T20:09:19.700Z,50.45
2022-08-19T20:11:53.611Z,50.55
2022-08-19T20:14:32.888Z,50.96
2022-08-19T20:17:00.444Z,51.34
2022-08-19T20:19:34.267Z,50.69
2022-08-19T20:22:01.902Z,51.07
2022-08-19T20:24:35.229Z,50.39
2022-08-19T20:27:03.814Z,51.01
2022-08-19T20:29:39.356Z,50.98
2022-08-19T20:32:10.163Z,51.48
2022-08-19T20:34:37.723Z,51.59
2022-08-19T20:37:04.898Z,51.52
2022-08-19T20:39:32.078Z,51.64
2022-08-19T20:42:00.744Z,51.72
2022-08-19T20:44:27.756Z,51.69
2022-08-19T20:46:57.507Z,51.73
2022-08-19T20:49:26.946Z,52.03
2022-08-19T20:51:57.896Z,51.44
2022-08-19T20:54:25.893Z,51.81
2022-08-19T20:56:53.944Z,52.01
2022-08-19T20:59:23.038Z,51.93
2022-08-19T21:01:53.638Z,51.53
2022-08-19T21:04:21.743Z,51.92
2022-08-19T21:06:50.506Z,51.88
2022-08-19T21:09:17.737Z,52.34
2022-08-19T21:11:44.769Z,52.38
2022-08-19T21:14:12.856Z,52.45
2022-08-19T21:16:39.882Z,52.03
2022-08-19T21:19:06.824Z,52.46
2022-08-19T21:21:35.006Z,52.54
2022-08-19T21:24:02.274Z,52.16
2022-08-19T21:26:29.256Z,52.42
2022-08-19T21:28:56.274Z,52.16
2022-08-19T21:31:23.292Z,52.50
2022-08-19T21:33:50.236Z,53.24
2022-08-19T21:36:17.586Z,53.24
2022-08-19T21:38:44.576Z,53.12
2022-08-19T21:41:11.572Z,53.74
2022-08-19T21:43:39.112Z,53.56
2022-08-19T21:46:06.973Z,53.82
2022-08-19T21:48:34.103Z,54.19
2022-08-19T21:51:01.046Z,54.20
2022-08-19T21:53:34.306Z,53.87
2022-08-19T21:56:03.614Z,54.03
2022-08-19T21:58:30.978Z,53.94
2022-08-19T22:01:05.977Z,54.11
2022-08-19T22:03:35.876Z,54.54
2022-08-19T22:06:02.944Z,54.39
2022-08-19T22:08:31.482Z,54.78
2022-08-19T22:11:01.424Z,54.45
2022-08-19T22:13:29.874Z,55.14
2022-08-19T22:16:06.424Z,55.01
2022-08-19T22:18:35.106Z,54.86
2022-08-19T22:21:06.413Z,55.07
2022-08-19T22:23:36.554Z,54.69
2022-08-19T22:26:03.639Z,55.08
2022-08-19T22:28:30.626Z,54.61
2022-08-19T22:30:57.780Z,54.73
2022-08-19T22:33:26.209Z,55.16
2022-08-19T22:35:54.548Z,54.40
2022-08-19T22:38:22.915Z,54.62
2022-08-19T22:40:51.867Z,54.05
2022-08-19T22:43:26.065Z,54.03
2022-08-19T22:45:55.776Z,53.79
2022-08-19T22:48:28.143Z,53.72
2022-08-19T22:51:14.855Z,53.56
2022-08-19T22:53:46.046Z,53.49
2022-08-19T22:56:15.701Z,53.58
2022-08-19T22:58:43.420Z,53.93
2022-08-19T23:01:16.321Z,53.90
2022-08-19T23:03:57.372Z,53.63
2022-08-19T23:06:33.059Z,53.76
2022-08-19T23:09:04.538Z,53.92
2022-08-19T23:11:39.869Z,53.48
2022-08-19T23:14:10.457Z,53.71
2022-08-19T23:16:37.406Z,53.45
2022-08-19T23:19:07.271Z,53.18
2022-08-19T23:21:36.264Z,53.88
2022-08-19T23:24:04.214Z,53.92
2022-08-19T23:26:35.580Z,53.20
2022-08-19T23:29:22.684Z,53.26
2022-08-19T23:31:49.874Z,53.53
2022-08-19T23:34:18.072Z,54.09
2022-08-19T23:36:46.358Z,54.16
2022-08-19T23:39:13.317Z,54.57
2022-08-19T23:41:40.284Z,54.36
2022-08-19T23:44:14.584Z,54.32
2022-08-19T23:46:51.871Z,54.41
2022-08-19T23:49:21.774Z,53.88
2022-08-19T23:51:48.716Z,53.85
2022-08-19T23:54:15.681Z,54.52
2022-08-19T23:56:42.681Z,54.13
2022-08-19T23:59:09.652Z,53.91
